Time,TemperatureF,DewpointF,PressureIn,WindDirection,WindDirectionDegrees,WindSpeedMPH,WindSpeedGustMPH,Humidity,HourlyPrecipIn,Conditions,Clouds,dailyrainin,SoftwareType,DateUTC
2013-06-17 00:00:00,53.4,52.9,29.82,NNW,337,0.0,-999.0,98,-99.99,,,0.00,Acu-Link.com,2013-06-17 04:00:00,
2013-06-17 00:15:00,53.4,52.9,29.82,WSW,247,0.0,-999.0,98,-99.99,,,0.00,Acu-Link.com,2013-06-17 04:15:00,
2013-06-17 00:30:00,53.4,52.9,29.82,WSW,247,0.0,-999.0,98,-99.99,,,0.00,Acu-Link.com,2013-06-17 04:30:00,
2013-06-17 00:46:00,53.4,52.9,29.82,SW,225,0.0,-999.0,98,-99.99,,,0.00,Acu-Link.com,2013-06-17 04:46:00,
2013-06-17 01:01:00,53.2,52.7,29.81,NNW,337,0.0,-999.0,98,-99.99,,,0.00,Acu-Link.com,2013-06-17 05:01:00,
2013-06-17 01:16:00,53.1,52.5,29.79,NNW,337,0.0,-999.0,98,-99.99,,,0.00,Acu-Link.com,2013-06-17 05:16:00,
2013-06-17 01:31:00,52.7,52.2,29.78,NNW,337,1.1,-999.0,98,-99.99,,,0.00,Acu-Link.com,2013-06-17 05:31:00,
2013-06-17 01:47:00,52.7,52.2,29.78,NNW,337,0.0,-999.0,98,-99.99,,,0.00,Acu-Link.com,2013-06-17 05:47:00,
2013-06-17 02:02:00,52.5,52.0,29.79,WSW,247,0.0,-999.0,98,-99.99,,,0.00,Acu-Link.com,2013-06-17 06:02:00,
2013-06-17 02:17:00,52.3,51.8,29.79,NNW,337,0.0,-999.0,98,-99.99,,,0.00,Acu-Link.com,2013-06-17 06:17:00,
2013-06-17 02:32:00,52.3,51.8,29.78,SW,225,0.0,-999.0,98,-99.99,,,0.00,Acu-Link.com,2013-06-17 06:32:00,
2013-06-17 02:48:00,52.3,51.8,29.77,West,270,0.0,-999.0,98,-99.99,,,0.00,Acu-Link.com,2013-06-17 06:48:00,
2013-06-17 03:03:00,52.3,51.8,29.78,North,0,0.0,-999.0,98,-99.99,,,0.00,Acu-Link.com,2013-06-17 07:03:00,
2013-06-17 03:18:00,52.5,52.0,29.78,North,0,0.0,-999.0,98,-99.99,,,0.00,Acu-Link.com,2013-06-17 07:18:00,
2013-06-17 03:33:00,52.5,52.0,29.78,North,0,0.0,-999.0,98,-99.99,,,0.01,Acu-Link.com,2013-06-17 07:33:00,
2013-06-17 03:49:00,52.5,52.0,29.78,North,0,0.0,-999.0,98,-99.99,,,0.01,Acu-Link.com,2013-06-17 07:49:00,
2013-06-17 04:04:00,52.5,52.0,29.78,North,0,0.0,-999.0,98,-99.99,,,0.01,Acu-Link.com,2013-06-17 08:04:00,
2013-06-17 04:19:00,52.7,52.2,29.78,North,0,0.0,-999.0,98,-99.99,,,0.01,Acu-Link.com,2013-06-17 08:19:00,
2013-06-17 04:35:00,52.7,52.2,29.77,North,0,0.0,-999.0,98,-99.99,,,0.01,Acu-Link.com,2013-06-17 08:35:00,
2013-06-17 04:50:00,52.7,52.2,29.79,South,180,0.0,-999.0,98,-99.99,,,0.01,Acu-Link.com,2013-06-17 08:50:00,
2013-06-17 05:05:00,52.9,52.3,29.79,SSW,202,0.0,-999.0,98,-99.99,,,0.01,Acu-Link.com,2013-06-17 09:05:00,
2013-06-17 05:20:00,53.1,52.5,29.79,WSW,247,0.0,-999.0,98,-99.99,,,0.01,Acu-Link.com,2013-06-17 09:20:00,
2013-06-17 05:35:00,53.2,52.7,29.78,WSW,247,0.0,-999.0,98,-99.99,,,0.01,Acu-Link.com,2013-06-17 09:35:00,
2013-06-17 05:50:00,53.4,52.9,29.78,WSW,247,0.0,-999.0,98,-99.99,,,0.01,Acu-Link.com,2013-06-17 09:50:00,
2013-06-17 06:06:00,53.8,53.2,29.79,SW,225,0.0,-999.0,98,-99.99,,,0.01,Acu-Link.com,2013-06-17 10:06:00,
2013-06-17 06:21:00,54.0,53.4,29.80,SW,225,0.0,-999.0,98,-99.99,,,0.01,Acu-Link.com,2013-06-17 10:21:00,
2013-06-17 06:36:00,54.1,53.6,29.79,SSE,157,0.0,-999.0,98,-99.99,,,0.01,Acu-Link.com,2013-06-17 10:36:00,
2013-06-17 06:51:00,54.3,53.8,29.79,SE,135,0.0,-999.0,98,-99.99,,,0.01,Acu-Link.com,2013-06-17 10:51:00,
2013-06-17 07:07:00,54.7,54.1,29.79,SW,225,0.0,-999.0,98,-99.99,,,0.01,Acu-Link.com,2013-06-17 11:07:00,
2013-06-17 07:22:00,55.2,54.7,29.80,SSW,202,0.0,-999.0,98,-99.99,,,0.01,Acu-Link.com,2013-06-17 11:22:00,
2013-06-17 07:37:00,55.6,55.0,29.80,WSW,247,0.0,-999.0,98,-99.99,,,0.01,Acu-Link.com,2013-06-17 11:37:00,
2013-06-17 07:52:00,55.2,54.7,29.81,SSW,202,0.0,-999.0,98,-99.99,,,0.01,Acu-Link.com,2013-06-17 11:52:00,
2013-06-17 08:08:00,55.2,54.7,29.82,WSW,247,0.0,-999.0,98,-99.99,,,0.01,Acu-Link.com,2013-06-17 12:08:00,
2013-06-17 08:23:00,56.1,55.6,29.82,North,0,0.0,-999.0,98,-99.99,,,0.01,Acu-Link.com,2013-06-17 12:23:00,
2013-06-17 08:38:00,56.3,55.7,29.82,SW,225,0.0,-999.0,98,-99.99,,,0.01,Acu-Link.com,2013-06-17 12:38:00,
2013-06-17 08:53:00,57.2,56.6,29.82,WSW,247,0.0,-999.0,98,-99.99,,,0.01,Acu-Link.com,2013-06-17 12:53:00,
2013-06-17 09:09:00,57.2,56.6,29.82,South,180,0.0,-999.0,98,-99.99,,,0.01,Acu-Link.com,2013-06-17 13:09:00,
2013-06-17 09:24:00,57.2,56.6,29.82,West,270,0.0,-999.0,98,-99.99,,,0.01,Acu-Link.com,2013-06-17 13:24:00,
2013-06-17 09:39:00,57.2,56.6,29.82,SSW,202,0.0,-999.0,98,-99.99,,,0.01,Acu-Link.com,2013-06-17 13:39:00,
2013-06-17 09:54:00,58.1,57.5,29.82,West,270,0.0,-999.0,98,-99.99,,,0.01,Acu-Link.com,2013-06-17 13:54:00,
2013-06-17 10:10:00,58.1,57.5,29.83,West,270,0.0,-999.0,98,-99.99,,,0.01,Acu-Link.com,2013-06-17 14:10:00,
2013-06-17 10:25:00,57.6,57.0,29.82,ESE,112,2.2,-999.0,98,-99.99,,,0.01,Acu-Link.com,2013-06-17 14:25:00,
2013-06-17 10:40:00,57.2,56.6,29.82,North,0,1.6,-999.0,98,-99.99,,,0.01,Acu-Link.com,2013-06-17 14:40:00,
2013-06-17 10:55:00,57.4,56.8,29.82,North,0,0.0,-999.0,98,-99.99,,,0.01,Acu-Link.com,2013-06-17 14:55:00,
2013-06-17 11:10:00,57.4,56.8,29.83,WSW,247,0.0,-999.0,98,-99.99,,,0.01,Acu-Link.com,2013-06-17 15:10:00,
2013-06-17 11:26:00,57.2,56.6,29.84,SSW,202,0.0,-999.0,98,-99.99,,,0.01,Acu-Link.com,2013-06-17 15:26:00,
2013-06-17 11:41:00,56.7,56.1,29.85,NNW,337,3.8,-999.0,98,-99.99,,,0.01,Acu-Link.com,2013-06-17 15:41:00,
2013-06-17 11:56:00,55.9,55.4,29.86,SSW,202,2.7,-999.0,98,-99.99,,,0.01,Acu-Link.com,2013-06-17 15:56:00,
2013-06-17 12:11:00,57.6,57.0,29.85,SSE,157,0.0,-999.0,98,-99.99,,,0.02,Acu-Link.com,2013-06-17 16:11:00,
2013-06-17 12:27:00,57.6,57.0,29.85,SSE,157,4.3,-999.0,98,-99.99,,,0.02,Acu-Link.com,2013-06-17 16:27:00,
2013-06-17 12:42:00,56.7,56.1,29.86,SSW,202,1.6,-999.0,98,-99.99,,,0.02,Acu-Link.com,2013-06-17 16:42:00,
2013-06-17 12:57:00,56.8,56.3,29.86,SSW,202,2.7,-999.0,98,-99.99,,,0.02,Acu-Link.com,2013-06-17 16:57:00,
2013-06-17 13:12:00,57.9,57.4,29.87,West,270,0.0,-999.0,98,-99.99,,,0.02,Acu-Link.com,2013-06-17 17:12:00,
2013-06-17 13:28:00,58.8,56.2,29.87,South,180,3.8,-999.0,91,-99.99,,,0.02,Acu-Link.com,2013-06-17 17:28:00,
2013-06-17 13:43:00,58.1,57.5,29.88,ESE,112,0.0,-999.0,98,-99.99,,,0.02,Acu-Link.com,2013-06-17 17:43:00,
2013-06-17 13:58:00,57.9,57.4,29.87,SW,225,0.0,-999.0,98,-99.99,,,0.02,Acu-Link.com,2013-06-17 17:58:00,
2013-06-17 14:13:00,57.9,57.4,29.87,SE,135,0.0,-999.0,98,-99.99,,,0.02,Acu-Link.com,2013-06-17 18:13:00,
2013-06-17 14:28:00,57.6,55.3,29.88,South,180,1.6,-999.0,92,-99.99,,,0.02,Acu-Link.com,2013-06-17 18:28:00,
2013-06-17 14:43:00,57.7,57.2,29.88,SSW,202,1.6,-999.0,98,-99.99,,,0.02,Acu-Link.com,2013-06-17 18:43:00,
2013-06-17 14:59:00,58.5,54.3,29.89,SSE,157,0.0,-999.0,86,-99.99,,,0.02,Acu-Link.com,2013-06-17 18:59:00,
2013-06-17 15:14:00,59.0,53.2,29.89,SSE,157,2.2,-999.0,81,-99.99,,,0.02,Acu-Link.com,2013-06-17 19:14:00,
2013-06-17 15:29:00,59.0,55.8,29.90,SSW,202,3.8,-999.0,89,-99.99,,,0.02,Acu-Link.com,2013-06-17 19:29:00,
2013-06-17 15:44:00,60.3,54.1,29.89,East,90,0.0,-999.0,80,-99.99,,,0.02,Acu-Link.com,2013-06-17 19:44:00,
2013-06-17 16:00:00,59.2,53.7,29.89,SE,135,3.1,-999.0,82,-99.99,,,0.02,Acu-Link.com,2013-06-17 20:00:00,
2013-06-17 16:15:00,58.1,51.6,29.90,SE,135,2.7,-999.0,79,-99.99,,,0.02,Acu-Link.com,2013-06-17 20:15:00,
2013-06-17 16:30:00,58.6,51.8,29.90,SW,225,3.1,-999.0,78,-99.99,,,0.02,Acu-Link.com,2013-06-17 20:30:00,
2013-06-17 16:45:00,58.6,51.4,29.90,South,180,2.2,-999.0,77,-99.99,,,0.02,Acu-Link.com,2013-06-17 20:45:00,
2013-06-17 17:01:00,59.5,51.2,29.90,South,180,2.7,-999.0,74,-99.99,,,0.02,Acu-Link.com,2013-06-17 21:01:00,
2013-06-17 17:16:00,59.4,51.1,29.91,SW,225,4.3,-999.0,74,-99.99,,,0.02,Acu-Link.com,2013-06-17 21:16:00,
2013-06-17 17:31:00,57.9,50.8,29.92,SSE,157,1.1,-999.0,77,-99.99,,,0.02,Acu-Link.com,2013-06-17 21:31:00,
2013-06-17 17:46:00,58.1,50.6,29.92,SSE,157,0.0,-999.0,76,-99.99,,,0.02,Acu-Link.com,2013-06-17 21:46:00,
2013-06-17 18:01:00,58.1,50.6,29.92,NNW,337,0.0,-999.0,76,-99.99,,,0.02,Acu-Link.com,2013-06-17 22:01:00,
2013-06-17 18:17:00,57.7,49.9,29.92,South,180,0.0,-999.0,75,-99.99,,,0.02,Acu-Link.com,2013-06-17 22:17:00,
2013-06-17 18:32:00,57.7,49.5,29.93,ESE,112,0.0,-999.0,74,-99.99,,,0.02,Acu-Link.com,2013-06-17 22:32:00,
2013-06-17 18:47:00,57.4,49.9,29.93,South,180,2.7,-999.0,76,-99.99,,,0.02,Acu-Link.com,2013-06-17 22:47:00,
2013-06-17 19:02:00,57.0,49.5,29.94,SSW,202,0.0,-999.0,76,-99.99,,,0.02,Acu-Link.com,2013-06-17 23:02:00,
2013-06-17 19:18:00,56.5,48.7,29.95,SSW,202,0.0,-999.0,75,-99.99,,,0.02,Acu-Link.com,2013-06-17 23:18:00,
2013-06-17 19:33:00,56.3,48.8,29.96,SE,135,0.0,-999.0,76,-99.99,,,0.02,Acu-Link.com,2013-06-17 23:33:00,
2013-06-17 19:48:00,55.4,48.3,29.96,SSE,157,0.0,-999.0,77,-99.99,,,0.02,Acu-Link.com,2013-06-17 23:48:00,
2013-06-17 20:03:00,55.0,49.3,29.96,NNW,337,0.0,-999.0,81,-99.99,,,0.02,Acu-Link.com,2013-06-18 00:03:00,
2013-06-17 20:19:00,54.1,49.7,29.97,NNW,337,0.0,-999.0,85,-99.99,,,0.02,Acu-Link.com,2013-06-18 00:19:00,
2013-06-17 20:34:00,53.4,50.0,29.97,NNW,337,0.0,-999.0,88,-99.99,,,0.02,Acu-Link.com,2013-06-18 00:34:00,
2013-06-17 20:49:00,53.1,49.0,29.97,NNW,337,0.0,-999.0,86,-99.99,,,0.02,Acu-Link.com,2013-06-18 00:49:00,
2013-06-17 21:04:00,52.2,50.5,29.98,NNW,337,0.0,-999.0,94,-99.99,,,0.02,Acu-Link.com,2013-06-18 01:04:00,
2013-06-17 21:19:00,51.3,50.7,29.98,NNW,337,0.0,-999.0,98,-99.99,,,0.02,Acu-Link.com,2013-06-18 01:19:00,
2013-06-17 21:35:00,50.5,50.0,29.99,NNW,337,0.0,-999.0,98,-99.99,,,0.02,Acu-Link.com,2013-06-18 01:35:00,
2013-06-17 21:50:00,50.2,49.6,29.99,NNW,337,0.0,-999.0,98,-99.99,,,0.02,Acu-Link.com,2013-06-18 01:50:00,
2013-06-17 22:05:00,49.8,49.3,29.98,NNW,337,0.0,-999.0,98,-99.99,,,0.02,Acu-Link.com,2013-06-18 02:05:00,
2013-06-17 22:20:00,48.9,48.4,29.99,NNW,337,0.0,-999.0,98,-99.99,,,0.02,Acu-Link.com,2013-06-18 02:20:00,
2013-06-17 22:36:00,48.6,48.0,29.98,NNW,337,0.0,-999.0,98,-99.99,,,0.02,Acu-Link.com,2013-06-18 02:36:00,
2013-06-17 22:51:00,48.7,48.2,29.97,NNW,337,0.0,-999.0,98,-99.99,,,0.02,Acu-Link.com,2013-06-18 02:51:00,
2013-06-17 23:06:00,49.1,48.6,29.98,NNW,337,0.0,-999.0,98,-99.99,,,0.02,Acu-Link.com,2013-06-18 03:06:00,
2013-06-17 23:21:00,48.4,47.8,29.99,NNW,337,0.0,-999.0,98,-99.99,,,0.02,Acu-Link.com,2013-06-18 03:21:00,
2013-06-17 23:37:00,48.0,47.5,29.99,NNW,337,0.0,-999.0,98,-99.99,,,0.02,Acu-Link.com,2013-06-18 03:37:00,
2013-06-17 23:52:00,47.3,46.8,30.00,NNW,337,0.0,-999.0,98,-99.99,,,0.02,Acu-Link.com,2013-06-18 03:52:00,